Time;durP1;ratioP1;P1;durP2;ratioP2;P2;SDS_P1;SDS_P2;PMS_P1;PMS_P2;Temp;Humidity;BMP_temperature;BMP_pressure;BME280_temperature;BME280_humidity;BME280_pressure;Samples;Min_cycle;Max_cycle;Signal;HPM_P1;HPM_P2
2022/06/30 00:02:03;;;;;;;20.20;16.10;;;;;;;18.30;83.30;101076.25;4962116;28;20066;-93
2022/06/30 00:08:03;;;;;;;22.60;17.42;;;;;;;18.10;83.70;101077.28;4951464;28;20406;-93
2022/06/30 00:11:06;;;;;;;25.17;17.23;;;;;;;17.98;83.13;101058.69;4954392;28;20029;-92
2022/06/30 00:14:01;;;;;;;23.42;16.33;;;;;;;18.00;83.58;101052.47;4939443;28;20064;-92
2022/06/30 00:17:01;;;;;;;21.85;16.70;;;;;;;18.05;83.09;101067.97;4956706;28;20042;-92
2022/06/30 00:20:03;;;;;;;23.45;17.00;;;;;;;17.92;83.43;101049.38;4892100;29;20036;-92
2022/06/30 00:23:01;;;;;;;23.38;16.85;;;;;;;17.84;84.09;101040.19;4900911;29;20043;-92
2022/06/30 00:32:01;;;;;;;23.67;17.65;;;;;;;17.87;84.60;101051.41;4889865;29;20503;-92
2022/06/30 00:35:01;;;;;;;23.00;16.67;;;;;;;17.81;84.57;101051.69;4891941;29;20116;-92
2022/06/30 00:38:11;;;;;;;22.25;16.83;;;;;;;17.79;85.22;101048.31;4888315;29;20103;-93
2022/06/30 00:41:00;;;;;;;;;;;;;;;;;;;;;
2022/06/30 00:43:54;;;;;;;25.10;17.08;;;;;;;17.55;85.38;101012.78;4946870;28;20043;-92
2022/06/30 00:47:05;;;;;;;23.25;17.60;;;;;;;17.70;84.76;101036.50;4948161;29;20039;-92
2022/06/30 00:53:03;;;;;;;24.85;18.25;;;;;;;17.44;85.46;101017.72;4910780;29;20574;-92
2022/06/30 00:56:01;;;;;;;26.00;18.02;;;;;;;17.50;85.42;101035.75;4894339;29;20095;-92
2022/06/30 00:59:03;;;;;;;21.90;17.30;;;;;;;17.57;85.56;101047.63;4887197;29;20474;-93
2022/06/30 01:02:02;;;;;;;25.40;18.52;;;;;;;17.47;87.15;101031.50;4891478;29;20032;-93
2022/06/30 01:08:05;;;;;;;24.60;18.60;;;;;;;17.37;87.10;101023.25;4883895;29;20044;-92
2022/06/30 01:14:03;;;;;;;25.63;18.73;;;;;;;17.29;87.69;101020.16;4900763;29;20181;-92
2022/06/30 01:17:02;;;;;;;25.33;18.30;;;;;;;17.41;87.95;101044.91;4917922;29;20494;-92
2022/06/30 01:20:03;;;;;;;25.48;19.08;;;;;;;17.31;89.01;101034.03;4965824;28;20466;-93
2022/06/30 01:23:02;;;;;;;26.35;19.35;;;;;;;17.40;88.06;101045.81;4967245;28;20470;-93
2022/06/30 01:26:02;;;;;;;27.45;19.17;;;;;;;17.22;87.18;101025.75;4927916;29;20031;-93
2022/06/30 01:29:02;;;;;;;26.48;19.15;;;;;;;17.15;88.88;101019.13;4922754;29;20043;-92
2022/06/30 01:32:01;;;;;;;26.63;19.77;;;;;;;17.41;87.63;101054.53;4943320;28;20089;-92
2022/06/30 01:35:01;;;;;;;27.20;19.60;;;;;;;17.23;87.36;101030.09;4947088;29;20032;-92
2022/06/30 01:38:05;;;;;;;27.65;20.02;;;;;;;17.23;87.62;101041.41;4965796;28;20030;-92
2022/06/30 01:41:01;;;;;;;33.28;19.83;;;;;;;17.17;88.41;101041.72;4947866;28;20053;-92
2022/06/30 01:44:01;;;;;;;26.45;19.23;;;;;;;17.12;88.00;101032.38;4971113;28;20590;-91
2022/06/30 01:47:03;;;;;;;29.25;19.85;;;;;;;17.19;88.15;101062.59;4962490;28;20414;-91
2022/06/30 01:50:38;;;;;;;32.53;20.20;;;;;;;17.05;88.43;101033.59;4938881;29;20035;-93
2022/06/30 01:53:02;;;;;;;31.85;20.05;;;;;;;17.00;89.85;101041.66;4946324;28;20725;-91
2022/06/30 01:56:14;;;;;;;28.08;20.58;;;;;;;16.96;88.62;101034.88;4971486;28;20061;-92
2022/06/30 01:59:03;;;;;;;30.90;21.17;;;;;;;16.93;88.82;101035.00;4951596;28;20038;-92
2022/06/30 02:02:01;;;;;;;30.10;20.55;;;;;;;16.88;88.66;101032.59;4969468;28;20027;-93
2022/06/30 02:05:02;;;;;;;29.13;20.50;;;;;;;16.93;89.26;101048.09;4937412;28;20049;-92
2022/06/30 02:08:06;;;;;;;29.75;21.48;;;;;;;16.98;88.89;101062.69;4970757;28;20031;-92
2022/06/30 02:11:01;;;;;;;29.77;21.27;;;;;;;16.79;89.14;101040.88;4942592;28;20053;-92
2022/06/30 02:14:02;;;;;;;33.70;22.20;;;;;;;16.75;88.93;101034.09;4954135;28;20023;-92
2022/06/30 02:16:38;;;;;;;37.17;22.52;;;;;;;16.72;90.29;101038.63;4921555;29;20035;-93
2022/06/30 02:19:04;;;;;;;31.02;21.63;;;;;;;16.78;90.35;101048.81;4950601;28;20039;-92
2022/06/30 02:22:02;;;;;;;35.80;22.70;;;;;;;16.78;90.75;101043.59;4952701;28;20058;-92
2022/06/30 02:25:03;;;;;;;34.35;23.40;;;;;;;16.89;89.28;101068.34;4921513;29;20067;-92
2022/06/30 02:28:02;;;;;;;37.92;23.38;;;;;;;16.85;90.08;101072.03;4917197;29;20035;-92
2022/06/30 02:31:17;;;;;;;35.85;22.35;;;;;;;16.81;89.94;101064.38;4950109;28;20568;-92
2022/06/30 02:34:00;;;;;;;32.20;21.90;;;;;;;16.84;90.50;101066.88;4969494;28;20046;-92
2022/06/30 02:40:03;;;;;;;37.53;22.88;;;;;;;16.77;90.11;101073.31;4962207;28;20509;-92
2022/06/30 02:43:04;;;;;;;34.63;23.23;;;;;;;16.54;89.65;101041.13;4917297;29;20118;-92
2022/06/30 02:45:57;;;;;;;33.00;22.88;;;;;;;16.59;91.51;101049.59;4961361;28;20485;-92
2022/06/30 02:49:02;;;;;;;39.35;24.00;;;;;;;16.48;90.10;101035.31;4925123;29;20046;-92
2022/06/30 02:52:06;;;;;;;37.67;23.58;;;;;;;16.51;92.09;101046.47;4941145;28;20039;-92
2022/06/30 02:55:05;;;;;;;34.45;23.38;;;;;;;16.48;90.54;101040.56;4936946;29;20027;-92
2022/06/30 02:58:05;;;;;;;36.45;23.20;;;;;;;16.36;90.90;101026.25;4906534;29;20071;-92
2022/06/30 03:01:01;;;;;;;35.45;24.05;;;;;;;16.54;91.88;101061.22;4944788;28;20046;-92
2022/06/30 03:04:01;;;;;;;32.33;22.48;;;;;;;16.37;91.22;101046.28;4969092;28;20028;-92
2022/06/30 03:07:21;;;;;;;;;;;;;;;;;;;;;
2022/06/30 03:10:04;;;;;;;34.15;23.02;;;;;;;16.47;91.60;101065.03;4965081;28;20039;-92
2022/06/30 03:13:01;;;;;;;36.55;25.00;;;;;;;16.51;91.82;101071.84;4948364;28;20062;-92
2022/06/30 03:16:03;;;;;;;35.67;24.42;;;;;;;16.34;92.04;101041.16;4929959;28;20035;-92
2022/06/30 03:19:01;;;;;;;36.45;23.63;;;;;;;16.24;92.51;101033.81;4950062;28;20034;-92
2022/06/30 03:25:04;;;;;;;38.35;24.83;;;;;;;16.37;91.90;101061.13;4928280;29;20589;-93
2022/06/30 03:28:05;;;;;;;38.45;25.60;;;;;;;16.27;91.58;101042.34;4868772;29;20101;-93
2022/06/30 03:31:01;;;;;;;37.85;25.55;;;;;;;16.37;92.28;101061.97;4855542;29;20037;-92
2022/06/30 03:37:02;;;;;;;36.63;25.23;;;;;;;16.17;93.04;101033.22;4910280;29;20791;-92
2022/06/30 03:40:03;;;;;;;37.47;25.20;;;;;;;16.23;92.11;101053.88;4867265;29;20085;-92
2022/06/30 03:43:04;;;;;;;38.83;26.15;;;;;;;16.25;92.12;101048.56;4943364;28;20054;-92
2022/06/30 03:46:01;;;;;;;39.70;26.08;;;;;;;16.19;92.47;101037.44;4892149;29;20060;-93
2022/06/30 03:49:02;;;;;;;38.53;25.60;;;;;;;16.06;93.21;101017.13;4879984;29;20051;-92
2022/06/30 03:52:02;;;;;;;40.85;26.52;;;;;;;16.10;93.56;101023.94;4916335;29;20035;-92
2022/06/30 03:55:00;;;;;;;38.10;25.73;;;;;;;16.19;93.52;101050.53;4922048;29;20054;-92
2022/06/30 03:58:01;;;;;;;41.80;26.75;;;;;;;16.05;93.53;101020.66;4877434;29;20108;-92
2022/06/30 04:01:01;;;;;;;40.30;26.67;;;;;;;16.23;93.83;101048.66;4869733;29;20044;-92
2022/06/30 04:04:02;;;;;;;40.47;27.95;;;;;;;16.00;92.86;101013.03;4932614;29;20023;-93
2022/06/30 04:06:59;;;;;;;43.28;27.95;;;;;;;16.08;94.10;101028.38;4926476;29;20043;-92
2022/06/30 04:10:02;;;;;;;41.25;27.63;;;;;;;15.98;94.21;101007.00;4967385;28;20429;-91
2022/06/30 04:19:04;;;;;;;42.80;28.65;;;;;;;16.19;94.61;101023.53;4872394;29;20048;-92
2022/06/30 04:22:20;;;;;;;42.38;28.40;;;;;;;16.19;94.14;101028.75;4858821;29;20449;-92
2022/06/30 04:25:01;;;;;;;43.88;29.02;;;;;;;16.10;95.51;101019.53;4883071;29;20052;-92
2022/06/30 04:28:01;;;;;;;43.97;29.23;;;;;;;16.19;95.86;101028.75;4895257;29;20492;-91
2022/06/30 04:34:01;;;;;;;43.55;30.63;;;;;;;16.15;95.65;101003.66;4938003;29;20164;-92
2022/06/30 04:37:05;;;;;;;47.80;31.67;;;;;;;16.37;95.04;101032.34;4943005;29;20126;-93
2022/06/30 04:43:03;;;;;;;47.85;32.47;;;;;;;16.30;95.34;101028.31;4948500;29;20514;-93
2022/06/30 04:46:15;;;;;;;46.97;31.00;;;;;;;16.37;94.05;101024.50;4971537;28;20425;-92
2022/06/30 04:49:01;;;;;;;49.05;31.50;;;;;;;16.46;94.49;101038.00;4946112;28;20031;-92
2022/06/30 04:52:02;;;;;;;45.28;31.48;;;;;;;16.59;93.17;101056.59;4955966;28;20062;-92
2022/06/30 04:55:04;;;;;;;47.40;33.65;;;;;;;16.51;93.72;101033.41;4867557;29;20047;-92
2022/06/30 04:57:36;;;;;;;46.75;32.72;;;;;;;16.69;93.63;101060.56;4881862;29;20046;-92
2022/06/30 05:00:02;;;;;;;49.22;33.78;;;;;;;16.55;95.09;101039.34;4880173;29;20571;-90
2022/06/30 05:02:45;;;;;;;47.40;33.65;;;;;;;16.68;92.60;101037.06;4899581;28;20174;-92
2022/06/30 05:05:33;;;;;;;46.25;32.63;;;;;;;16.92;92.56;101060.34;4945911;28;20023;-92
2022/06/30 05:08:02;;;;;;;42.97;31.75;;;;;;;16.88;91.74;101068.41;4916247;28;20046;-90
2022/06/30 05:11:02;;;;;;;41.20;31.65;;;;;;;16.85;91.74;101029.28;4954079;28;20050;-92
2022/06/30 05:14:02;;;;;;;43.45;32.88;;;;;;;16.98;90.61;101041.75;4958470;28;20035;-91
2022/06/30 05:16:56;;;;;;;43.55;32.63;;;;;;;17.11;90.79;101065.59;4918159;29;20047;-91
2022/06/30 05:20:02;;;;;;;45.28;33.13;;;;;;;17.20;90.20;101052.03;4950541;28;20098;-92
2022/06/30 05:22:29;;;;;;;46.85;33.47;;;;;;;17.17;90.10;101062.66;4955276;28;20035;-90
2022/06/30 05:28:00;;;;;;;47.78;34.83;;;;;;;17.37;90.18;101061.72;4949601;28;20487;-91
2022/06/30 05:31:00;;;;;;;46.55;33.92;;;;;;;17.38;90.26;101055.56;4979900;28;20509;-91
2022/06/30 05:34:03;;;;;;;47.40;35.55;;;;;;;17.60;92.09;101068.47;4942758;29;20705;-91
2022/06/30 05:37:01;;;;;;;44.00;33.22;;;;;;;17.48;90.10;101051.53;4943995;28;20043;-92
2022/06/30 05:42:48;;;;;;;53.03;37.75;;;;;;;17.60;89.94;101047.50;4952943;28;20078;-90
2022/06/30 05:45:45;;;;;;;49.03;38.35;;;;;;;17.87;89.29;101075.00;4934223;28;20059;-90
2022/06/30 05:48:14;;;;;;;49.45;37.88;;;;;;;17.87;89.23;101064.50;4933648;28;20117;-91
2022/06/30 05:51:02;;;;;;;50.67;39.13;;;;;;;17.77;88.91;101037.88;4955515;29;20114;-90
2022/06/30 05:54:01;;;;;;;53.47;41.13;;;;;;;17.90;88.85;101051.22;4911924;29;20618;-89
2022/06/30 05:57:13;;;;;;;55.60;41.53;;;;;;;18.07;88.71;101072.22;4959078;28;20074;-92
2022/06/30 06:00:00;;;;;;;50.85;39.90;;;;;;;17.95;88.44;101035.25;4956512;28;20027;-91
2022/06/30 06:02:49;;;;;;;52.20;39.58;;;;;;;18.15;88.98;101072.63;4943419;28;20070;-91
2022/06/30 06:08:38;;;;;;;54.95;40.22;;;;;;;18.08;88.46;101047.66;4950894;28;20059;-91
2022/06/30 06:11:04;;;;;;;58.38;41.40;;;;;;;18.28;89.35;101066.78;4953958;28;20090;-91
2022/06/30 06:14:03;;;;;;;56.55;40.78;;;;;;;18.28;88.25;101066.78;4961055;28;20050;-90
2022/06/30 06:17:03;;;;;;;56.90;40.45;;;;;;;18.43;87.96;101085.19;4941715;28;20027;-91
2022/06/30 06:19:53;;;;;;;52.72;38.17;;;;;;;18.48;88.33;101095.47;4980051;28;20421;-92
2022/06/30 06:23:01;;;;;;;53.28;39.20;;;;;;;18.38;88.09;101058.34;4941699;28;20049;-92
2022/06/30 06:26:07;;;;;;;58.75;39.80;;;;;;;18.47;88.21;101057.00;4947110;29;20082;-91
2022/06/30 06:29:21;;;;;;;52.67;38.17;;;;;;;18.55;87.28;101057.47;4906164;29;20507;-91
2022/06/30 06:32:04;;;;;;;51.83;37.03;;;;;;;18.72;86.77;101077.59;4875147;29;20111;-90
2022/06/30 06:35:03;;;;;;;56.03;37.63;;;;;;;18.75;86.80;101077.44;4915046;29;20032;-92
2022/06/30 06:38:35;;;;;;;50.75;36.55;;;;;;;18.79;86.13;101065.81;4913790;29;20036;-90
2022/06/30 06:41:07;;;;;;;46.20;33.15;;;;;;;19.06;86.14;101093.22;4965947;28;20509;-91
2022/06/30 06:44:01;;;;;;;52.40;35.50;;;;;;;19.18;85.14;101091.69;4944972;28;20042;-90
2022/06/30 06:47:03;;;;;;;50.03;32.35;;;;;;;19.18;86.07;101073.28;4930778;28;20030;-93
2022/06/30 06:50:01;;;;;;;46.65;31.95;;;;;;;19.28;86.10;101077.09;4949504;28;20057;-90
2022/06/30 06:52:56;;;;;;;44.95;32.28;;;;;;;19.45;84.82;101070.91;4961515;28;20054;-90
2022/06/30 06:56:05;;;;;;;44.80;32.22;;;;;;;19.76;83.71;101112.09;4969509;28;20042;-91
2022/06/30 06:59:02;;;;;;;39.35;28.00;;;;;;;19.69;82.96;101083.53;4901504;29;20109;-90
2022/06/30 07:01:47;;;;;;;41.42;27.13;;;;;;;19.94;81.24;101111.03;4934053;28;20038;-91
2022/06/30 07:08:02;;;;;;;35.92;23.92;;;;;;;20.05;80.77;101090.22;4958636;28;20039;-91
2022/06/30 07:11:32;;;;;;;;;;;;;;;;;;;;;
2022/06/30 07:14:00;;;;;;;34.25;23.13;;;;;;;20.17;78.34;101101.78;4953672;28;20042;-91
2022/06/30 07:17:01;;;;;;;35.80;21.50;;;;;;;20.45;78.97;101134.31;4961182;28;20413;-92
2022/06/30 07:19:58;;;;;;;33.95;21.35;;;;;;;20.44;78.81;101115.97;4957164;28;20023;-92
2022/06/30 07:22:49;;;;;;;;;;;;;;;;;;;;;
2022/06/30 07:29:03;;;;;;;28.27;19.33;;;;;;;20.96;78.06;101154.94;4972971;28;20035;-90
2022/06/30 07:32:01;;;;;;;27.95;18.63;;;;;;;21.08;78.01;101156.81;4953124;28;20027;-93
2022/06/30 07:34:47;;;;;;;27.42;17.65;;;;;;;21.19;76.61;101146.47;4875066;29;20037;-90
2022/06/30 07:38:01;;;;;;;31.65;18.30;;;;;;;21.33;76.54;101162.28;4896419;29;20040;-91
2022/06/30 07:41:01;;;;;;;25.88;16.88;;;;;;;21.36;75.17;101148.06;4894269;29;20037;-91
2022/06/30 07:43:44;;;;;;;22.23;14.73;;;;;;;21.66;74.80;101172.44;4901137;28;20062;-90
2022/06/30 07:49:49;;;;;;;18.95;12.70;;;;;;;22.46;70.32;101159.16;4955268;28;20492;-91
2022/06/30 07:52:30;;;;;;;21.05;12.57;;;;;;;23.51;67.80;101162.38;4978711;28;20049;-91
2022/06/30 07:55:02;;;;;;;21.75;11.93;;;;;;;24.45;65.27;101158.91;4939589;28;20035;-90
2022/06/30 07:58:02;;;;;;;18.00;10.57;;;;;;;25.33;65.83;101157.25;4959340;28;20027;-92
2022/06/30 08:01:02;;;;;;;19.45;10.60;;;;;;;26.18;61.00;101171.50;4957539;28;20102;-91
2022/06/30 08:07:03;;;;;;;21.42;10.40;;;;;;;27.14;52.76;101156.13;4877582;29;20120;-93
2022/06/30 08:10:01;;;;;;;18.45;10.02;;;;;;;27.73;57.78;101149.94;4964264;28;20051;-91
2022/06/30 08:12:39;;;;;;;20.48;9.98;;;;;;;27.87;51.72;101173.50;4941294;28;20038;-93
2022/06/30 08:15:05;;;;;;;13.82;9.05;;;;;;;27.80;51.59;101172.38;4949285;28;20123;-91
2022/06/30 08:18:03;;;;;;;15.45;9.00;;;;;;;27.57;57.12;101147.00;4936418;29;20031;-91
2022/06/30 08:21:02;;;;;;;14.60;7.93;;;;;;;27.39;55.29;101150.28;4944524;28;20106;-91
2022/06/30 08:23:27;;;;;;;15.75;8.80;;;;;;;27.24;52.84;101172.94;4972196;28;20053;-93
2022/06/30 08:26:01;;;;;;;15.20;8.18;;;;;;;26.98;53.11;101145.13;4966573;28;20398;-90
2022/06/30 08:29:03;;;;;;;15.38;7.90;;;;;;;26.98;56.52;101142.47;4936511;28;20094;-92
2022/06/30 08:32:05;;;;;;;13.30;6.97;;;;;;;26.91;58.30;101146.63;4963161;28;20528;-90
2022/06/30 08:35:01;;;;;;;11.15;6.90;;;;;;;26.97;56.20;101154.06;4939016;28;20027;-92
2022/06/30 08:38:03;;;;;;;10.15;6.43;;;;;;;26.97;54.88;101138.13;4942007;28;20039;-91
2022/06/30 08:43:30;;;;;;;;;;;;;;;27.24;57.35;101156.13;4966006;28;20034;-90
2022/06/30 08:56:02;;;;;;;11.48;5.68;;;;;;;26.97;54.82;101170.88;4917018;29;20137;-91
2022/06/30 08:59:00;;;;;;;11.52;5.07;;;;;;;27.01;54.16;101161.69;4934937;29;20051;-91
2022/06/30 09:02:00;;;;;;;12.55;5.47;;;;;;;27.03;55.74;101137.56;4974906;28;20026;-91
2022/06/30 09:04:37;;;;;;;13.43;5.78;;;;;;;27.18;50.85;101143.38;4932710;28;20032;-90
2022/06/30 09:07:03;;;;;;;12.40;5.97;;;;;;;27.12;53.80;101142.94;4942894;28;20027;-91
2022/06/30 09:10:03;;;;;;;8.70;5.00;;;;;;;27.35;54.57;101148.91;4945512;28;20123;-92
2022/06/30 09:13:02;;;;;;;14.48;5.95;;;;;;;27.33;53.33;101177.47;4975071;28;20390;-91
2022/06/30 09:16:01;;;;;;;11.65;5.70;;;;;;;27.34;52.61;101170.31;4942760;29;20031;-90
2022/06/30 09:18:31;;;;;;;11.30;5.18;;;;;;;27.04;53.55;101158.72;4940176;28;20022;-90
2022/06/30 09:25:35;;;;;;;;;;;;;;;;;;;;;
2022/06/30 09:28:01;;;;;;;9.18;4.63;;;;;;;27.43;51.92;101146.34;4887714;29;20039;-91
2022/06/30 09:34:33;;;;;;;9.63;5.63;;;;;;;27.59;52.44;101156.53;4912746;29;20032;-92
2022/06/30 09:41:01;;;;;;;14.43;5.55;;;;;;;27.76;50.92;101181.66;4899392;29;20489;-91
2022/06/30 09:44:01;;;;;;;11.15;5.40;;;;;;;27.60;52.91;101173.34;4898666;29;20063;-92
2022/06/30 09:46:57;;;;;;;10.00;5.53;;;;;;;27.46;52.10;101148.75;4859190;29;20060;-93
2022/06/30 09:50:00;;;;;;;9.88;4.75;;;;;;;27.69;51.96;101172.53;4871458;29;20488;-93
2022/06/30 09:52:51;;;;;;;8.20;5.22;;;;;;;27.46;50.29;101167.41;4954846;28;20023;-92
2022/06/30 09:55:36;;;;;;;13.15;5.18;;;;;;;27.32;50.30;101169.59;4938395;29;20042;-92
2022/06/30 09:58:02;;;;;;;9.85;4.50;;;;;;;27.45;52.63;101175.53;4946412;28;20053;-91
2022/06/30 10:00:50;;;;;;;13.80;5.22;;;;;;;27.46;51.02;101185.19;4968925;28;20166;-91
2022/06/30 10:04:05;;;;;;;10.73;5.57;;;;;;;27.49;51.42;101159.16;4942058;29;20035;-93
2022/06/30 10:06:52;;;;;;;7.15;4.78;;;;;;;27.47;49.50;101184.22;4939216;28;20507;-91
2022/06/30 10:10:01;;;;;;;14.02;5.10;;;;;;;27.27;51.78;101177.16;4950168;28;20076;-92
2022/06/30 10:12:48;;;;;;;9.23;5.50;;;;;;;27.17;52.69;101194.91;4948880;28;20023;-91
2022/06/30 10:15:43;;;;;;;12.32;5.15;;;;;;;27.04;52.91;101184.50;4934180;28;20061;-92
2022/06/30 10:18:16;;;;;;;12.25;5.78;;;;;;;26.90;47.88;101201.66;4929195;29;20097;-90
2022/06/30 10:21:04;;;;;;;13.25;5.55;;;;;;;26.51;49.19;101187.28;4970745;28;20113;-94
2022/06/30 10:23:59;;;;;;;9.77;5.50;;;;;;;26.38;51.45;101162.72;4968208;28;20077;-92
2022/06/30 10:29:33;;;;;;;10.55;4.30;;;;;;;26.33;50.97;101164.94;4971922;28;20060;-93
2022/06/30 10:32:14;;;;;;;9.63;4.80;;;;;;;26.62;51.51;101191.69;4965825;28;20031;-91
2022/06/30 10:34:55;;;;;;;8.75;4.70;;;;;;;26.58;53.97;101172.50;4942528;28;20027;-92
2022/06/30 10:37:46;;;;;;;10.07;4.32;;;;;;;26.87;53.17;101158.50;4944933;29;20035;-92
2022/06/30 10:41:02;;;;;;;9.25;4.75;;;;;;;27.09;52.66;101158.34;4931232;28;20053;-92
2022/06/30 10:44:02;;;;;;;7.78;4.60;;;;;;;27.22;50.83;101156.28;4940585;28;20441;-92
2022/06/30 10:47:01;;;;;;;7.82;4.38;;;;;;;27.37;51.10;101173.53;4976701;28;20047;-92
2022/06/30 10:50:25;;;;;;;7.95;4.40;;;;;;;27.18;49.73;101170.81;4918356;28;20035;-90
2022/06/30 10:53:29;;;;;;;9.05;4.55;;;;;;;26.53;49.14;101177.38;4922277;28;20130;-92
2022/06/30 10:56:04;;;;;;;12.82;4.30;;;;;;;26.32;49.79;101144.63;4979162;28;20031;-91
2022/06/30 10:59:01;;;;;;;8.63;4.68;;;;;;;26.55;49.45;101170.09;4953173;29;20099;-91
2022/06/30 11:02:04;;;;;;;7.65;4.35;;;;;;;26.75;51.60;101163.03;4944285;28;20110;-92
2022/06/30 11:04:42;;;;;;;9.38;4.60;;;;;;;26.83;50.19;101163.22;4964009;28;20031;-91
2022/06/30 11:07:28;;;;;;;7.13;4.25;;;;;;;26.92;51.61;101151.84;4939460;29;20027;-92
2022/06/30 11:10:02;;;;;;;8.15;4.80;;;;;;;26.89;52.74;101156.53;4937492;29;20027;-92
2022/06/30 11:13:05;;;;;;;9.88;6.38;;;;;;;26.95;51.50;101150.72;4930757;28;20476;-91
2022/06/30 11:17:17;;;;;;;10.50;5.72;;;;;;;26.76;50.53;101124.84;4910649;29;20052;-90
2022/06/30 11:22:21;;;;;;;9.02;5.40;;;;;;;26.89;50.44;101151.22;4866694;29;20224;-90
2022/06/30 11:25:09;;;;;;;9.32;6.40;;;;;;;26.71;48.60;101161.63;4913178;29;20039;-92
2022/06/30 11:28:03;;;;;;;9.65;4.82;;;;;;;26.32;50.96;101139.31;4914013;29;20036;-93
2022/06/30 11:30:43;;;;;;;7.50;4.28;;;;;;;26.38;50.39;101157.41;4923244;29;20043;-92
2022/06/30 11:33:36;;;;;;;6.60;3.83;;;;;;;26.69;52.58;101153.78;4894806;29;20055;-92
2022/06/30 11:36:04;;;;;;;10.35;4.63;;;;;;;26.71;49.62;101127.91;4888708;29;20119;-91
2022/06/30 11:39:14;;;;;;;7.50;4.50;;;;;;;26.91;49.55;101155.47;4912349;29;20047;-91
2022/06/30 11:42:31;;;;;;;7.65;4.00;;;;;;;26.54;51.34;101127.69;4912699;29;20032;-92
2022/06/30 11:45:01;;;;;;;10.38;4.43;;;;;;;26.25;49.62;101138.16;4884065;29;20123;-93
2022/06/30 11:47:50;;;;;;;10.50;3.75;;;;;;;26.32;51.83;101140.16;4896299;29;20134;-92
2022/06/30 11:50:47;;;;;;;;;;;;;;;;;;;;;
2022/06/30 11:53:42;;;;;;;9.73;4.25;;;;;;;26.30;51.11;101134.13;4935996;29;20048;-91
2022/06/30 11:56:11;;;;;;;7.32;3.88;;;;;;;26.62;51.64;101119.88;4936083;29;20131;-90
2022/06/30 11:59:15;;;;;;;7.82;3.60;;;;;;;27.12;50.77;101134.94;4935552;29;20023;-92
2022/06/30 12:02:03;;;;;;;7.05;3.97;;;;;;;26.97;49.93;101109.69;4951910;29;20047;-92
2022/06/30 12:05:00;;;;;;;6.78;3.90;;;;;;;26.94;50.27;101123.28;4955091;28;20019;-91
2022/06/30 12:07:58;;;;;;;;;;;;;;;;;;;;;
2022/06/30 12:14:01;;;;;;;6.60;3.70;;;;;;;26.54;49.90;101103.75;4952717;29;20039;-91
2022/06/30 12:17:02;;;;;;;6.22;3.58;;;;;;;26.35;49.48;101086.72;4938842;29;20457;-91
2022/06/30 12:20:27;;;;;;;6.80;3.88;;;;;;;26.17;49.74;101100.72;4969828;28;20038;-92
2022/06/30 12:23:03;;;;;;;8.23;3.50;;;;;;;25.65;50.99;101075.03;4951946;28;20137;-91
2022/06/30 12:28:55;;;;;;;8.27;3.33;;;;;;;25.69;51.32;101074.63;4937816;28;20094;-91
2022/06/30 12:35:02;;;;;;;6.20;3.83;;;;;;;25.83;51.58;101082.31;4951092;28;20111;-91
2022/06/30 12:38:12;;;;;;;7.45;4.03;;;;;;;25.53;51.97;101048.47;4954327;28;20053;-93
2022/06/30 12:41:06;;;;;;;8.10;4.50;;;;;;;25.57;53.12;101046.44;4928274;29;20028;-91
2022/06/30 12:43:58;;;;;;;10.60;4.22;;;;;;;25.66;53.48;101040.38;4939664;28;20122;-91
2022/06/30 12:47:01;;;;;;;8.95;3.80;;;;;;;25.79;52.41;101045.50;4953950;28;20053;-92
2022/06/30 12:49:46;;;;;;;7.78;4.50;;;;;;;25.73;55.59;101049.50;4961890;28;20062;-91
2022/06/30 12:52:45;;;;;;;9.55;5.00;;;;;;;25.83;54.87;101058.41;4948051;29;20035;-93
2022/06/30 12:56:08;;;;;;;10.50;4.95;;;;;;;25.77;53.12;101058.91;4949107;28;20050;-92
2022/06/30 12:59:01;;;;;;;9.63;4.80;;;;;;;25.81;54.35;101047.06;4936979;28;20178;-92
2022/06/30 13:01:56;;;;;;;10.43;5.95;;;;;;;26.04;54.10;101057.56;4957608;28;20030;-91
2022/06/30 13:05:31;;;;;;;12.73;7.28;;;;;;;26.06;50.84;101031.69;4934882;29;20211;-92
2022/06/30 13:07:58;;;;;;;14.30;8.18;;;;;;;25.87;52.93;101043.88;4937223;29;20254;-93
2022/06/30 13:11:04;;;;;;;12.68;8.35;;;;;;;25.71;52.23;101032.03;4935211;29;20042;-91
2022/06/30 13:13:33;;;;;;;14.75;7.53;;;;;;;25.62;54.30;101028.31;4965542;28;20038;-91
2022/06/30 13:16:02;;;;;;;15.60;8.25;;;;;;;25.83;53.06;101038.97;4953840;28;20026;-92
2022/06/30 13:18:40;;;;;;;15.10;9.63;;;;;;;25.99;52.41;101033.19;4971170;28;20077;-92
2022/06/30 13:21:21;;;;;;;15.90;9.50;;;;;;;25.88;52.97;101032.28;4953795;28;20038;-91
2022/06/30 13:24:03;;;;;;;13.82;9.55;;;;;;;25.84;54.22;101024.72;4934804;29;20030;-92
2022/06/30 13:26:48;;;;;;;20.92;9.77;;;;;;;25.77;54.50;101013.75;4943964;28;20379;-92
2022/06/30 13:29:32;;;;;;;16.08;10.90;;;;;;;25.89;52.70;101012.72;4938747;29;20039;-93
2022/06/30 13:31:59;;;;;;;17.52;9.65;;;;;;;26.08;54.54;101019.09;4934857;29;20067;-91
2022/06/30 13:35:19;;;;;;;16.17;9.70;;;;;;;26.01;53.04;101002.84;4933242;29;20482;-91
2022/06/30 13:38:03;;;;;;;16.25;10.45;;;;;;;25.87;52.69;101006.69;4960410;28;20223;-93
2022/06/30 13:40:58;;;;;;;15.38;10.27;;;;;;;25.68;53.98;100998.59;4965460;28;20296;-91
2022/06/30 13:44:02;;;;;;;;;;;;;;;;;;;;;
2022/06/30 13:46:58;;;;;;;15.70;9.93;;;;;;;25.77;54.05;101008.44;4968498;28;20055;-90
2022/06/30 13:49:48;;;;;;;14.93;8.60;;;;;;;25.87;54.54;101035.06;4952863;28;20077;-93
2022/06/30 14:00:05;;;;;;;13.43;8.30;;;;;;;26.02;54.62;101022.28;4906699;29;20043;-90
2022/06/30 14:02:34;;;;;;;16.63;10.75;;;;;;;26.02;53.16;101039.06;4931685;29;20044;-90
2022/06/30 14:05:02;;;;;;;16.95;9.60;;;;;;;26.00;53.96;101030.38;4933630;29;20024;-91
2022/06/30 14:07:39;;;;;;;15.43;8.82;;;;;;;25.86;53.61;101028.09;4941508;29;20481;-91
2022/06/30 14:10:13;;;;;;;14.15;8.27;;;;;;;25.60;54.78;101011.66;4929674;29;20505;-92
2022/06/30 14:13:01;;;;;;;16.20;10.40;;;;;;;25.47;55.45;101019.78;4933120;28;20031;-92
2022/06/30 14:16:03;;;;;;;13.77;9.25;;;;;;;25.30;55.97;101012.41;4974538;28;20022;-92
2022/06/30 14:19:02;;;;;;;13.15;8.00;;;;;;;25.32;56.12;101022.88;4938000;29;20050;-92
2022/06/30 14:22:01;;;;;;;14.85;8.27;;;;;;;25.08;56.89;101004.50;4954789;29;20550;-92
2022/06/30 14:28:01;;;;;;;13.65;9.48;;;;;;;25.05;57.10;100997.63;4969548;28;20047;-92
2022/06/30 14:30:39;;;;;;;15.00;9.63;;;;;;;25.15;57.38;101011.84;4957014;28;20028;-91
2022/06/30 14:33:04;;;;;;;15.40;9.70;;;;;;;25.18;56.93;101000.97;4955824;28;20519;-92
2022/06/30 14:38:54;;;;;;;16.63;8.82;;;;;;;25.68;55.78;101024.31;4957482;28;20487;-91
2022/06/30 14:44:35;;;;;;;14.65;7.93;;;;;;;25.61;56.33;101018.66;4954739;29;20030;-91
2022/06/30 14:47:01;;;;;;;13.73;7.82;;;;;;;25.49;56.32;100996.63;4936270;29;20438;-92
2022/06/30 14:49:58;;;;;;;10.40;6.38;;;;;;;25.39;55.57;100989.53;4950721;29;20043;-92
2022/06/30 14:52:42;;;;;;;;;;;;;;;;;;;;;
2022/06/30 14:55:43;;;;;;;11.30;6.70;;;;;;;25.27;55.66;100993.22;4966077;28;20027;-92
2022/06/30 14:58:14;;;;;;;9.77;6.35;;;;;;;25.18;56.30;101010.72;4955295;28;20046;-92
2022/06/30 15:01:01;;;;;;;10.52;6.70;;;;;;;25.04;55.49;100993.28;4956443;28;20027;-91
2022/06/30 15:03:53;;;;;;;9.90;5.72;;;;;;;25.06;55.21;101011.75;4948955;28;20114;-91
2022/06/30 15:07:06;;;;;;;10.95;5.10;;;;;;;24.97;55.66;100999.25;4952613;28;20107;-92
2022/06/30 15:10:02;;;;;;;10.35;5.20;;;;;;;24.87;55.53;100999.09;4942282;28;20509;-93
2022/06/30 15:13:00;;;;;;;9.57;5.22;;;;;;;24.68;56.51;100985.66;4942666;29;20054;-95
2022/06/30 15:16:01;;;;;;;10.13;6.35;;;;;;;24.56;57.63;101013.16;4933074;29;20043;-93
2022/06/30 15:18:32;;;;;;;9.23;4.95;;;;;;;24.24;59.25;100973.28;4931721;29;20031;-94
2022/06/30 15:24:32;;;;;;;11.68;6.60;;;;;;;24.35;58.92;100981.25;4954594;29;20286;-93
2022/06/30 15:27:00;;;;;;;13.07;5.30;;;;;;;24.43;59.84;101009.78;4915419;28;20071;-92
2022/06/30 15:30:32;;;;;;;;;;;;;;;;;;;;;